Ginys del Meteocat

Dades de l'estació automàtica Port de Barcelona - Bocana Sud

?
?
Resum diari 17:30 TU
Dades diàries de l'estació meteorològica
Ratxa màxima del vent (10 m) 35.3 km/h - 43º 14:39 TU

El tram horari està expressat en Temps Universal (TU). Cal sumar una hora en horari d'hivern i dues en horari d'estiu per passar a l'hora oficial.

Port de Barcelona - Bocana Sud

Metadades estació meteorol´gica
Municipi El Prat de Llobregat
Comarca Baix Llobregat
Altitud 3 m
Data alta 08.04.2015
Estat actual Operativa
Dades de període
Període
TU
VVM (10 m)
km/h
DVM (10 m)
graus
VVX (10 m)
km/h
00:00 - 00:30 10.8 218 15.8
00:30 - 01:00 15.1 230 20.5
01:00 - 01:30 16.9 228 22.7
01:30 - 02:00 14.4 219 20.2
02:00 - 02:30 15.8 231 26.6
02:30 - 03:00 14.8 219 19.8
03:00 - 03:30 13.7 223 18.0
03:30 - 04:00 13.7 233 19.8
04:00 - 04:30 12.2 225 16.9
04:30 - 05:00 10.1 220 14.0
05:00 - 05:30 10.1 224 15.8
05:30 - 06:00 13.7 235 18.7
06:00 - 06:30 12.2 237 16.9
06:30 - 07:00 14.0 235 16.9
07:00 - 07:30 7.9 235 14.8
07:30 - 08:00 8.3 243 14.8
08:00 - 08:30 17.6 265 25.2
08:30 - 09:00 16.9 251 25.2
09:00 - 09:30 14.4 240 23.0
09:30 - 10:00 6.5 208 12.6
10:00 - 10:30 2.2 218 7.6
10:30 - 11:00 3.6 64 14.0
11:00 - 11:30 6.1 52 16.9
11:30 - 12:00 14.8 44 19.4
12:00 - 12:30 15.8 42 23.4
12:30 - 13:00 16.9 45 24.1
13:00 - 13:30 21.2 39 30.2
13:30 - 14:00 26.6 39 34.9
14:00 - 14:30 23.8 44 33.5
14:30 - 15:00 24.8 44 35.3
15:00 - 15:30 23.4 45 31.3
15:30 - 16:00 24.1 45 31.3
16:00 - 16:30 19.8 50 30.6
16:30 - 17:00 21.6 84 26.3
17:00 - 17:30 18.4 94 24.1
17:30 - 18:00 14.8 104 19.1
18:00 - 18:30 (s/d) (s/d) (s/d)

Les dades en taronja només han passat un control de qualitat automàtic. Resta pendent la seva validació definitiva.